sensor_id;sensor_type;location;lat;lon;timestamp;pressure;altitude;pressure_sealevel;temperature;humidity
42847;BME280;28495;49.916;14.536;2022-11-14T00:05:44;97442.84;;;6.45;71.65
42847;BME280;28495;49.916;14.536;2022-11-14T00:11:23;97440.88;;;6.49;71.67
42847;BME280;28495;49.916;14.536;2022-11-14T00:17:03;97434.59;;;6.53;71.73
42847;BME280;28495;49.916;14.536;2022-11-14T00:22:42;97423.38;;;6.52;71.60
42847;BME280;28495;49.916;14.536;2022-11-14T00:28:21;97418.72;;;6.58;71.78
42847;BME280;28495;49.916;14.536;2022-11-14T00:34:01;97414.47;;;6.56;71.72
42847;BME280;28495;49.916;14.536;2022-11-14T00:39:40;97404.66;;;6.62;71.80
42847;BME280;28495;49.916;14.536;2022-11-14T00:45:19;97401.47;;;6.71;71.89
42847;BME280;28495;49.916;14.536;2022-11-14T00:50:59;97398.66;;;6.74;71.66
42847;BME280;28495;49.916;14.536;2022-11-14T00:56:38;97396.69;;;6.78;71.96
42847;BME280;28495;49.916;14.536;2022-11-14T01:02:17;97397.47;;;6.93;71.99
42847;BME280;28495;49.916;14.536;2022-11-14T01:07:57;97388.44;;;7.11;72.22
42847;BME280;28495;49.916;14.536;2022-11-14T01:13:36;97369.25;;;7.14;71.69
42847;BME280;28495;49.916;14.536;2022-11-14T01:19:15;97368.22;;;7.16;71.90
42847;BME280;28495;49.916;14.536;2022-11-14T01:24:55;97365.41;;;7.07;71.47
42847;BME280;28495;49.916;14.536;2022-11-14T01:30:37;97353.47;;;7.04;71.68
42847;BME280;28495;49.916;14.536;2022-11-14T01:36:16;97340.41;;;6.93;71.39
42847;BME280;28495;49.916;14.536;2022-11-14T01:41:55;97336.03;;;6.93;71.49
42847;BME280;28495;49.916;14.536;2022-11-14T01:47:34;97338.22;;;6.86;71.24
42847;BME280;28495;49.916;14.536;2022-11-14T01:53:14;97344.66;;;6.94;71.62
42847;BME280;28495;49.916;14.536;2022-11-14T01:58:55;97336.47;;;7.00;71.78
42847;BME280;28495;49.916;14.536;2022-11-14T02:04:41;97340.91;;;6.98;71.62
42847;BME280;28495;49.916;14.536;2022-11-14T02:10:21;97340.28;;;6.81;71.03
42847;BME280;28495;49.916;14.536;2022-11-14T02:16:01;97334.06;;;6.71;71.13
42847;BME280;28495;49.916;14.536;2022-11-14T02:21:40;97326.78;;;6.63;71.41
42847;BME280;28495;49.916;14.536;2022-11-14T02:27:20;97331.44;;;6.58;71.58
42847;BME280;28495;49.916;14.536;2022-11-14T02:32:59;97323.25;;;6.51;71.37
42847;BME280;28495;49.916;14.536;2022-11-14T02:38:54;97314.34;;;6.55;71.54
42847;BME280;28495;49.916;14.536;2022-11-14T02:44:33;97310.19;;;6.53;71.51
42847;BME280;28495;49.916;14.536;2022-11-14T02:50:12;97298.91;;;6.54;71.70
42847;BME280;28495;49.916;14.536;2022-11-14T02:55:52;97292.25;;;6.50;71.73
42847;BME280;28495;49.916;14.536;2022-11-14T03:01:31;97287.47;;;6.44;71.62
42847;BME280;28495;49.916;14.536;2022-11-14T03:07:10;97272.56;;;6.47;71.77
42847;BME280;28495;49.916;14.536;2022-11-14T03:12:54;97249.25;;;6.47;71.99
42847;BME280;28495;49.916;14.536;2022-11-14T03:18:34;97243.03;;;6.50;71.77
42847;BME280;28495;49.916;14.536;2022-11-14T03:24:13;97250.69;;;6.51;71.96
42847;BME280;28495;49.916;14.536;2022-11-14T03:29:53;97258.19;;;6.56;72.00
42847;BME280;28495;49.916;14.536;2022-11-14T03:35:32;97248.94;;;6.52;71.96
42847;BME280;28495;49.916;14.536;2022-11-14T03:41:11;97241.91;;;6.54;72.08
42847;BME280;28495;49.916;14.536;2022-11-14T03:46:50;97252.78;;;6.46;72.02
42847;BME280;28495;49.916;14.536;2022-11-14T03:52:30;97248.53;;;6.45;72.18
42847;BME280;28495;49.916;14.536;2022-11-14T03:58:09;97256.09;;;6.48;72.22
42847;BME280;28495;49.916;14.536;2022-11-14T04:03:49;97257.13;;;6.46;72.22
42847;BME280;28495;49.916;14.536;2022-11-14T04:09:28;97252.88;;;6.45;72.03
42847;BME280;28495;49.916;14.536;2022-11-14T04:15:07;97240.13;;;6.42;72.19
42847;BME280;28495;49.916;14.536;2022-11-14T04:20:47;97234.53;;;6.35;71.88
42847;BME280;28495;49.916;14.536;2022-11-14T04:26:26;97228.22;;;6.26;72.08
42847;BME280;28495;49.916;14.536;2022-11-14T04:32:06;97222.59;;;6.19;72.27
42847;BME280;28495;49.916;14.536;2022-11-14T04:37:45;97221.44;;;6.10;72.28
42847;BME280;28495;49.916;14.536;2022-11-14T04:43:24;97220.28;;;6.02;72.32
42847;BME280;28495;49.916;14.536;2022-11-14T04:49:03;97230.91;;;5.97;72.68
42847;BME280;28495;49.916;14.536;2022-11-14T04:54:44;97227.38;;;5.98;72.53
42847;BME280;28495;49.916;14.536;2022-11-14T05:00:23;97220.19;;;6.03;72.59
42847;BME280;28495;49.916;14.536;2022-11-14T05:06:03;97218.06;;;5.95;72.49
42847;BME280;28495;49.916;14.536;2022-11-14T05:11:42;97223.00;;;5.86;72.59
42847;BME280;28495;49.916;14.536;2022-11-14T05:17:22;97218.13;;;5.81;72.62
42847;BME280;28495;49.916;14.536;2022-11-14T05:23:01;97196.50;;;5.82;72.81
42847;BME280;28495;49.916;14.536;2022-11-14T05:28:40;97198.03;;;5.85;72.71
42847;BME280;28495;49.916;14.536;2022-11-14T05:34:19;97192.78;;;5.86;72.91
42847;BME280;28495;49.916;14.536;2022-11-14T05:39:59;97206.34;;;5.90;73.01
42847;BME280;28495;49.916;14.536;2022-11-14T05:45:38;97215.47;;;5.95;73.10
42847;BME280;28495;49.916;14.536;2022-11-14T05:51:18;97221.69;;;5.93;73.03
42847;BME280;28495;49.916;14.536;2022-11-14T05:56:57;97228.72;;;5.91;73.12
42847;BME280;28495;49.916;14.536;2022-11-14T06:02:36;97236.91;;;5.98;73.50
42847;BME280;28495;49.916;14.536;2022-11-14T06:08:16;97248.78;;;6.02;73.32
42847;BME280;28495;49.916;14.536;2022-11-14T06:13:55;97256.97;;;6.08;73.53
42847;BME280;28495;49.916;14.536;2022-11-14T06:19:34;97267.63;;;6.17;73.41
42847;BME280;28495;49.916;14.536;2022-11-14T06:25:13;97261.56;;;6.31;73.40
42847;BME280;28495;49.916;14.536;2022-11-14T06:30:56;97250.00;;;6.49;73.56
42847;BME280;28495;49.916;14.536;2022-11-14T06:36:36;97252.28;;;6.54;73.62
42847;BME280;28495;49.916;14.536;2022-11-14T06:42:16;97265.00;;;6.83;73.33
42847;BME280;28495;49.916;14.536;2022-11-14T06:47:59;97282.84;;;6.88;72.65
42847;BME280;28495;49.916;14.536;2022-11-14T06:53:38;97265.63;;;6.74;71.87
42847;BME280;28495;49.916;14.536;2022-11-14T06:59:18;97269.75;;;6.37;71.82
42847;BME280;28495;49.916;14.536;2022-11-14T07:04:57;97264.69;;;6.49;72.54
42847;BME280;28495;49.916;14.536;2022-11-14T07:10:37;97262.44;;;6.57;72.67
42847;BME280;28495;49.916;14.536;2022-11-14T07:16:16;97257.56;;;6.78;73.24
42847;BME280;28495;49.916;14.536;2022-11-14T07:21:56;97246.03;;;6.95;73.33
42847;BME280;28495;49.916;14.536;2022-11-14T07:27:35;97255.66;;;7.06;72.89
42847;BME280;28495;49.916;14.536;2022-11-14T07:33:14;97258.88;;;7.10;72.65
42847;BME280;28495;49.916;14.536;2022-11-14T07:38:53;97259.19;;;7.18;73.01
42847;BME280;28495;49.916;14.536;2022-11-14T07:44:32;97253.84;;;7.32;73.07
42847;BME280;28495;49.916;14.536;2022-11-14T07:50:12;97247.97;;;7.55;73.41
42847;BME280;28495;49.916;14.536;2022-11-14T07:56:02;97254.03;;;7.67;72.89
42847;BME280;28495;49.916;14.536;2022-11-14T08:01:42;97255.91;;;7.65;72.72
42847;BME280;28495;49.916;14.536;2022-11-14T08:07:21;97260.50;;;7.61;72.40
42847;BME280;28495;49.916;14.536;2022-11-14T08:13:02;97264.53;;;7.65;72.57
42847;BME280;28495;49.916;14.536;2022-11-14T08:19:02;97270.72;;;7.75;72.60
42847;BME280;28495;49.916;14.536;2022-11-14T08:24:41;97263.88;;;7.74;72.53
42847;BME280;28495;49.916;14.536;2022-11-14T08:30:21;97253.47;;;7.74;72.55
42847;BME280;28495;49.916;14.536;2022-11-14T08:36:04;97255.13;;;7.75;72.35
42847;BME280;28495;49.916;14.536;2022-11-14T08:41:43;97252.72;;;7.85;72.58
42847;BME280;28495;49.916;14.536;2022-11-14T08:47:22;97241.00;;;7.80;72.54
42847;BME280;28495;49.916;14.536;2022-11-14T08:53:02;97245.25;;;7.81;72.32
42847;BME280;28495;49.916;14.536;2022-11-14T08:58:41;97244.50;;;7.91;72.43
42847;BME280;28495;49.916;14.536;2022-11-14T09:04:20;97231.97;;;7.97;72.47
42847;BME280;28495;49.916;14.536;2022-11-14T09:10:00;97231.09;;;8.09;72.41
42847;BME280;28495;49.916;14.536;2022-11-14T09:15:40;97225.94;;;8.32;72.83
42847;BME280;28495;49.916;14.536;2022-11-14T09:21:20;97223.03;;;8.48;72.58
42847;BME280;28495;49.916;14.536;2022-11-14T09:26:59;97224.75;;;8.60;72.10
42847;BME280;28495;49.916;14.536;2022-11-14T09:32:38;97217.63;;;8.62;72.17
42847;BME280;28495;49.916;14.536;2022-11-14T09:38:17;97209.13;;;8.72;71.92
42847;BME280;28495;49.916;14.536;2022-11-14T09:50:06;97209.38;;;8.91;71.79
42847;BME280;28495;49.916;14.536;2022-11-14T09:55:50;97201.19;;;9.07;72.33
42847;BME280;28495;49.916;14.536;2022-11-14T10:13:03;97180.00;;;9.35;71.61
42847;BME280;28495;49.916;14.536;2022-11-14T10:30:08;97181.78;;;9.67;71.28
42847;BME280;28495;49.916;14.536;2022-11-14T10:36:00;97170.00;;;9.84;71.22
42847;BME280;28495;49.916;14.536;2022-11-14T10:41:44;97172.28;;;9.98;71.10
42847;BME280;28495;49.916;14.536;2022-11-14T10:47:39;97166.28;;;10.07;70.76
42847;BME280;28495;49.916;14.536;2022-11-14T10:59:17;97144.25;;;10.12;70.14
42847;BME280;28495;49.916;14.536;2022-11-14T11:05:03;97138.41;;;10.19;70.85
42847;BME280;28495;49.916;14.536;2022-11-14T11:10:49;97135.34;;;10.35;70.69
42847;BME280;28495;49.916;14.536;2022-11-14T11:29:00;97134.66;;;10.64;70.16
42847;BME280;28495;49.916;14.536;2022-11-14T11:34:40;97124.41;;;10.73;70.45
42847;BME280;28495;49.916;14.536;2022-11-14T11:40:21;97121.81;;;10.82;70.01
42847;BME280;28495;49.916;14.536;2022-11-14T11:46:03;97106.16;;;10.82;69.86
42847;BME280;28495;49.916;14.536;2022-11-14T11:51:43;97099.59;;;10.88;69.89
42847;BME280;28495;49.916;14.536;2022-11-14T11:57:27;97103.06;;;11.08;69.80
42847;BME280;28495;49.916;14.536;2022-11-14T12:03:11;97108.56;;;11.15;69.63
42847;BME280;28495;49.916;14.536;2022-11-14T12:14:44;97112.97;;;11.15;69.86
42847;BME280;28495;49.916;14.536;2022-11-14T12:32:46;97119.63;;;10.97;69.21
42847;BME280;28495;49.916;14.536;2022-11-14T12:38:22;97102.38;;;10.96;69.30
42847;BME280;28495;49.916;14.536;2022-11-14T12:50:00;97095.03;;;10.80;69.25
42847;BME280;28495;49.916;14.536;2022-11-14T13:01:23;97086.25;;;10.81;69.02
42847;BME280;28495;49.916;14.536;2022-11-14T13:13:12;97093.13;;;10.82;69.11
42847;BME280;28495;49.916;14.536;2022-11-14T13:19:15;97097.78;;;10.79;69.10
42847;BME280;28495;49.916;14.536;2022-11-14T13:25:17;97087.22;;;10.80;69.09
42847;BME280;28495;49.916;14.536;2022-11-14T13:31:17;97067.03;;;10.82;69.19
42847;BME280;28495;49.916;14.536;2022-11-14T13:54:16;97059.34;;;10.81;68.98
42847;BME280;28495;49.916;14.536;2022-11-14T14:00:09;97058.94;;;10.86;68.98
42847;BME280;28495;49.916;14.536;2022-11-14T14:06:24;97055.38;;;10.87;68.81
42847;BME280;28495;49.916;14.536;2022-11-14T14:18:06;97056.31;;;10.76;68.81
42847;BME280;28495;49.916;14.536;2022-11-14T14:35:25;97057.75;;;10.49;68.97
42847;BME280;28495;49.916;14.536;2022-11-14T14:41:05;97065.00;;;10.45;69.01
42847;BME280;28495;49.916;14.536;2022-11-14T14:46:44;97073.16;;;10.31;68.89
42847;BME280;28495;49.916;14.536;2022-11-14T14:52:31;97067.22;;;10.19;68.82
42847;BME280;28495;49.916;14.536;2022-11-14T15:04:10;97056.81;;;9.76;69.15
42847;BME280;28495;49.916;14.536;2022-11-14T15:09:52;97060.97;;;9.58;69.09
42847;BME280;28495;49.916;14.536;2022-11-14T15:15:32;97049.09;;;9.44;69.04
42847;BME280;28495;49.916;14.536;2022-11-14T15:26:54;97046.31;;;9.24;69.36
42847;BME280;28495;49.916;14.536;2022-11-14T15:32:34;97047.22;;;9.13;69.33
42847;BME280;28495;49.916;14.536;2022-11-14T15:44:35;97062.97;;;9.00;69.70
42847;BME280;28495;49.916;14.536;2022-11-14T15:55:52;97057.91;;;8.88;70.17
42847;BME280;28495;49.916;14.536;2022-11-14T16:01:31;97055.06;;;9.35;72.79
42847;BME280;28495;49.916;14.536;2022-11-14T16:07:12;97058.09;;;9.40;70.56
42847;BME280;28495;49.916;14.536;2022-11-14T16:12:52;97057.56;;;9.25;69.63
42847;BME280;28495;49.916;14.536;2022-11-14T16:18:32;97065.53;;;9.12;69.90
42847;BME280;28495;49.916;14.536;2022-11-14T16:24:16;97080.34;;;9.11;69.50
42847;BME280;28495;49.916;14.536;2022-11-14T16:29:55;97076.13;;;8.99;69.50
42847;BME280;28495;49.916;14.536;2022-11-14T16:35:35;97065.50;;;8.91;69.77
42847;BME280;28495;49.916;14.536;2022-11-14T16:41:14;97063.28;;;8.75;69.86
42847;BME280;28495;49.916;14.536;2022-11-14T16:46:55;97073.69;;;8.75;69.69
42847;BME280;28495;49.916;14.536;2022-11-14T16:52:36;97075.56;;;8.84;70.20
42847;BME280;28495;49.916;14.536;2022-11-14T16:58:15;97074.28;;;8.78;69.94
42847;BME280;28495;49.916;14.536;2022-11-14T17:03:58;97063.06;;;8.66;69.81
42847;BME280;28495;49.916;14.536;2022-11-14T17:09:40;97070.88;;;8.55;69.77
42847;BME280;28495;49.916;14.536;2022-11-14T17:15:20;97058.25;;;8.50;69.88
42847;BME280;28495;49.916;14.536;2022-11-14T17:21:02;97061.53;;;8.30;69.87
42847;BME280;28495;49.916;14.536;2022-11-14T17:26:42;97058.34;;;8.15;70.05
42847;BME280;28495;49.916;14.536;2022-11-14T17:32:21;97052.91;;;8.18;70.54
42847;BME280;28495;49.916;14.536;2022-11-14T17:38:00;97057.88;;;8.21;70.40
42847;BME280;28495;49.916;14.536;2022-11-14T17:43:40;97058.59;;;8.12;70.04
42847;BME280;28495;49.916;14.536;2022-11-14T17:49:20;97057.97;;;8.31;70.35
42847;BME280;28495;49.916;14.536;2022-11-14T17:54:59;97062.94;;;8.45;70.70
42847;BME280;28495;49.916;14.536;2022-11-14T18:00:39;97066.97;;;8.61;71.00
42847;BME280;28495;49.916;14.536;2022-11-14T18:06:19;97073.69;;;8.63;70.32
42847;BME280;28495;49.916;14.536;2022-11-14T18:11:58;97070.66;;;8.58;70.00
42847;BME280;28495;49.916;14.536;2022-11-14T18:17:37;97078.34;;;8.48;69.77
42847;BME280;28495;49.916;14.536;2022-11-14T18:23:17;97087.38;;;8.20;69.72
42847;BME280;28495;49.916;14.536;2022-11-14T18:28:57;97087.06;;;8.36;70.13
42847;BME280;28495;49.916;14.536;2022-11-14T18:34:36;97089.22;;;8.53;70.04
42847;BME280;28495;49.916;14.536;2022-11-14T18:40:16;97087.28;;;8.44;69.42
42847;BME280;28495;49.916;14.536;2022-11-14T18:46:06;97076.53;;;8.37;69.71
42847;BME280;28495;49.916;14.536;2022-11-14T18:51:47;97077.69;;;8.33;69.19
42847;BME280;28495;49.916;14.536;2022-11-14T18:57:27;97073.09;;;8.26;69.08
42847;BME280;28495;49.916;14.536;2022-11-14T19:03:07;97073.31;;;8.11;69.29
42847;BME280;28495;49.916;14.536;2022-11-14T19:08:47;97068.25;;;8.21;69.95
42847;BME280;28495;49.916;14.536;2022-11-14T19:14:27;97073.22;;;8.13;69.34
42847;BME280;28495;49.916;14.536;2022-11-14T19:20:06;97061.31;;;8.21;69.76
42847;BME280;28495;49.916;14.536;2022-11-14T19:25:56;97069.31;;;8.30;69.73
42847;BME280;28495;49.916;14.536;2022-11-14T19:31:36;97069.91;;;8.33;69.35
42847;BME280;28495;49.916;14.536;2022-11-14T19:37:15;97075.47;;;8.29;69.80
42847;BME280;28495;49.916;14.536;2022-11-14T19:42:55;97083.84;;;8.21;69.91
42847;BME280;28495;49.916;14.536;2022-11-14T19:48:38;97075.72;;;8.37;70.45
42847;BME280;28495;49.916;14.536;2022-11-14T19:54:21;97069.09;;;8.21;69.86
42847;BME280;28495;49.916;14.536;2022-11-14T20:00:01;97079.22;;;8.02;69.67
42847;BME280;28495;49.916;14.536;2022-11-14T20:05:41;97081.91;;;7.89;70.23
42847;BME280;28495;49.916;14.536;2022-11-14T20:11:21;97079.47;;;7.99;70.73
42847;BME280;28495;49.916;14.536;2022-11-14T20:17:01;97069.91;;;8.11;70.68
42847;BME280;28495;49.916;14.536;2022-11-14T20:22:40;97060.34;;;8.11;70.69
42847;BME280;28495;49.916;14.536;2022-11-14T20:28:19;97054.06;;;8.02;70.48
42847;BME280;28495;49.916;14.536;2022-11-14T20:33:59;97047.84;;;8.05;70.64
42847;BME280;28495;49.916;14.536;2022-11-14T20:39:38;97053.34;;;7.89;70.56
42847;BME280;28495;49.916;14.536;2022-11-14T20:45:18;97050.41;;;7.82;69.73
42847;BME280;28495;49.916;14.536;2022-11-14T20:56:46;97041.72;;;7.47;70.05
42847;BME280;28495;49.916;14.536;2022-11-14T21:02:26;97040.63;;;7.39;69.00
42847;BME280;28495;49.916;14.536;2022-11-14T21:08:06;97032.66;;;7.17;69.01
42847;BME280;28495;49.916;14.536;2022-11-14T21:13:45;97015.06;;;7.10;69.18
42847;BME280;28495;49.916;14.536;2022-11-14T21:19:37;97023.41;;;7.02;69.26
42847;BME280;28495;49.916;14.536;2022-11-14T21:25:29;97023.28;;;7.04;69.49
42847;BME280;28495;49.916;14.536;2022-11-14T21:31:27;97023.19;;;7.05;69.68
42847;BME280;28495;49.916;14.536;2022-11-14T21:37:09;97014.50;;;7.17;69.24
42847;BME280;28495;49.916;14.536;2022-11-14T21:42:49;97017.28;;;7.03;69.02
42847;BME280;28495;49.916;14.536;2022-11-14T21:48:32;97014.63;;;6.80;68.85
42847;BME280;28495;49.916;14.536;2022-11-14T21:54:22;97013.59;;;6.70;68.73
42847;BME280;28495;49.916;14.536;2022-11-14T22:00:01;97016.94;;;6.59;68.94
42847;BME280;28495;49.916;14.536;2022-11-14T22:05:41;97012.28;;;6.89;69.78
42847;BME280;28495;49.916;14.536;2022-11-14T22:11:20;97005.75;;;7.07;69.19
42847;BME280;28495;49.916;14.536;2022-11-14T22:17:00;97007.81;;;6.66;68.10
42847;BME280;28495;49.916;14.536;2022-11-14T22:22:53;97012.31;;;6.51;68.91
42847;BME280;28495;49.916;14.536;2022-11-14T22:28:33;97011.44;;;6.39;68.51
42847;BME280;28495;49.916;14.536;2022-11-14T22:34:12;97003.22;;;6.46;69.13
42847;BME280;28495;49.916;14.536;2022-11-14T22:39:51;97010.09;;;6.34;68.93
42847;BME280;28495;49.916;14.536;2022-11-14T22:45:37;97004.34;;;6.17;68.84
42847;BME280;28495;49.916;14.536;2022-11-14T22:51:24;97003.00;;;6.12;69.01
42847;BME280;28495;49.916;14.536;2022-11-14T22:57:03;96998.44;;;6.02;68.97
42847;BME280;28495;49.916;14.536;2022-11-14T23:03:02;96994.38;;;5.98;69.14
42847;BME280;28495;49.916;14.536;2022-11-14T23:08:58;96992.03;;;5.95;68.78
42847;BME280;28495;49.916;14.536;2022-11-14T23:14:38;96984.59;;;5.77;68.88
42847;BME280;28495;49.916;14.536;2022-11-14T23:20:17;96986.44;;;5.75;69.22
42847;BME280;28495;49.916;14.536;2022-11-14T23:26:00;96976.19;;;5.87;69.66
42847;BME280;28495;49.916;14.536;2022-11-14T23:31:40;96980.63;;;5.85;69.53
42847;BME280;28495;49.916;14.536;2022-11-14T23:37:19;96988.50;;;5.83;69.15
42847;BME280;28495;49.916;14.536;2022-11-14T23:42:58;96971.22;;;5.84;69.58
42847;BME280;28495;49.916;14.536;2022-11-14T23:48:38;96978.47;;;5.78;69.29
42847;BME280;28495;49.916;14.536;2022-11-14T23:54:18;96967.00;;;5.70;69.42
42847;BME280;28495;49.916;14.536;2022-11-14T23:59:58;96970.41;;;5.70;69.71
